sensor_id;sensor_type;location;lat;lon;timestamp;P1;durP1;ratioP1;P2;durP2;ratioP2
62030;SDS011;62035;52.094;5.112;2023-02-24T00:01:53;26.88;;;3.35;;
62030;SDS011;62035;52.094;5.112;2023-02-24T00:04:26;10.00;;;2.38;;
62030;SDS011;62035;52.094;5.112;2023-02-24T00:06:57;11.05;;;3.20;;
62030;SDS011;62035;52.094;5.112;2023-02-24T00:09:26;13.77;;;2.80;;
62030;SDS011;62035;52.094;5.112;2023-02-24T00:11:56;15.73;;;3.38;;
62030;SDS011;62035;52.094;5.112;2023-02-24T00:14:27;17.88;;;3.35;;
62030;SDS011;62035;52.094;5.112;2023-02-24T00:16:59;10.82;;;3.28;;
62030;SDS011;62035;52.094;5.112;2023-02-24T00:19:28;8.90;;;2.90;;
62030;SDS011;62035;52.094;5.112;2023-02-24T00:21:57;16.77;;;3.35;;
62030;SDS011;62035;52.094;5.112;2023-02-24T00:24:26;11.45;;;2.78;;
62030;SDS011;62035;52.094;5.112;2023-02-24T00:26:54;10.63;;;3.30;;
62030;SDS011;62035;52.094;5.112;2023-02-24T00:29:25;12.65;;;3.03;;
62030;SDS011;62035;52.094;5.112;2023-02-24T00:31:54;15.45;;;3.13;;
62030;SDS011;62035;52.094;5.112;2023-02-24T00:34:26;8.73;;;2.40;;
62030;SDS011;62035;52.094;5.112;2023-02-24T00:36:57;14.32;;;2.70;;
62030;SDS011;62035;52.094;5.112;2023-02-24T00:39:25;10.38;;;2.92;;
62030;SDS011;62035;52.094;5.112;2023-02-24T00:41:58;14.27;;;3.08;;
62030;SDS011;62035;52.094;5.112;2023-02-24T00:46:59;14.52;;;3.95;;
62030;SDS011;62035;52.094;5.112;2023-02-24T00:49:29;21.98;;;3.08;;
62030;SDS011;62035;52.094;5.112;2023-02-24T00:51:58;21.05;;;3.08;;
62030;SDS011;62035;52.094;5.112;2023-02-24T00:54:26;16.92;;;3.22;;
62030;SDS011;62035;52.094;5.112;2023-02-24T00:56:54;9.38;;;2.90;;
62030;SDS011;62035;52.094;5.112;2023-02-24T00:59:22;12.93;;;3.22;;
62030;SDS011;62035;52.094;5.112;2023-02-24T01:01:50;9.70;;;2.53;;
62030;SDS011;62035;52.094;5.112;2023-02-24T01:04:19;13.75;;;2.92;;
62030;SDS011;62035;52.094;5.112;2023-02-24T01:06:50;28.02;;;3.63;;
62030;SDS011;62035;52.094;5.112;2023-02-24T01:09:25;15.60;;;2.90;;
62030;SDS011;62035;52.094;5.112;2023-02-24T01:11:55;12.48;;;3.33;;
62030;SDS011;62035;52.094;5.112;2023-02-24T01:14:42;11.60;;;2.60;;
62030;SDS011;62035;52.094;5.112;2023-02-24T01:17:13;19.13;;;3.40;;
62030;SDS011;62035;52.094;5.112;2023-02-24T01:19:43;14.02;;;2.92;;
62030;SDS011;62035;52.094;5.112;2023-02-24T01:22:16;10.48;;;2.45;;
62030;SDS011;62035;52.094;5.112;2023-02-24T01:24:47;9.88;;;2.42;;
62030;SDS011;62035;52.094;5.112;2023-02-24T01:27:16;13.02;;;2.60;;
62030;SDS011;62035;52.094;5.112;2023-02-24T01:29:44;13.57;;;2.50;;
62030;SDS011;62035;52.094;5.112;2023-02-24T01:32:13;14.32;;;2.35;;
62030;SDS011;62035;52.094;5.112;2023-02-24T01:34:43;12.52;;;2.75;;
62030;SDS011;62035;52.094;5.112;2023-02-24T01:37:11;10.65;;;2.63;;
62030;SDS011;62035;52.094;5.112;2023-02-24T01:39:45;7.82;;;2.15;;
62030;SDS011;62035;52.094;5.112;2023-02-24T01:42:14;10.65;;;2.45;;
62030;SDS011;62035;52.094;5.112;2023-02-24T01:45:02;18.33;;;2.37;;
62030;SDS011;62035;52.094;5.112;2023-02-24T01:47:55;10.38;;;2.17;;
62030;SDS011;62035;52.094;5.112;2023-02-24T01:50:26;7.88;;;2.22;;
62030;SDS011;62035;52.094;5.112;2023-02-24T01:52:56;15.40;;;2.90;;
62030;SDS011;62035;52.094;5.112;2023-02-24T01:55:30;12.82;;;2.78;;
62030;SDS011;62035;52.094;5.112;2023-02-24T01:58:04;13.27;;;2.33;;
62030;SDS011;62035;52.094;5.112;2023-02-24T02:00:40;10.73;;;2.33;;
62030;SDS011;62035;52.094;5.112;2023-02-24T02:03:13;17.77;;;2.55;;
62030;SDS011;62035;52.094;5.112;2023-02-24T02:05:58;12.63;;;2.63;;
62030;SDS011;62035;52.094;5.112;2023-02-24T02:08:31;12.40;;;2.22;;
62030;SDS011;62035;52.094;5.112;2023-02-24T02:11:04;13.15;;;2.28;;
62030;SDS011;62035;52.094;5.112;2023-02-24T02:13:34;12.18;;;2.13;;
62030;SDS011;62035;52.094;5.112;2023-02-24T02:16:17;6.75;;;2.40;;
62030;SDS011;62035;52.094;5.112;2023-02-24T02:19:13;9.88;;;2.25;;
62030;SDS011;62035;52.094;5.112;2023-02-24T02:22:21;14.68;;;2.33;;
62030;SDS011;62035;52.094;5.112;2023-02-24T02:25:15;8.20;;;1.90;;
62030;SDS011;62035;52.094;5.112;2023-02-24T02:28:02;4.72;;;1.80;;
62030;SDS011;62035;52.094;5.112;2023-02-24T02:34:19;9.27;;;2.80;;
62030;SDS011;62035;52.094;5.112;2023-02-24T02:37:03;14.65;;;2.40;;
62030;SDS011;62035;52.094;5.112;2023-02-24T02:39:42;9.98;;;2.70;;
62030;SDS011;62035;52.094;5.112;2023-02-24T02:42:20;11.25;;;2.35;;
62030;SDS011;62035;52.094;5.112;2023-02-24T02:44:58;15.45;;;2.35;;
62030;SDS011;62035;52.094;5.112;2023-02-24T02:47:34;9.27;;;1.75;;
62030;SDS011;62035;52.094;5.112;2023-02-24T02:50:11;14.27;;;2.38;;
62030;SDS011;62035;52.094;5.112;2023-02-24T02:52:48;9.00;;;2.22;;
62030;SDS011;62035;52.094;5.112;2023-02-24T02:55:23;11.63;;;2.22;;
62030;SDS011;62035;52.094;5.112;2023-02-24T02:57:59;8.73;;;2.22;;
62030;SDS011;62035;52.094;5.112;2023-02-24T03:00:34;13.23;;;2.38;;
62030;SDS011;62035;52.094;5.112;2023-02-24T03:03:09;7.70;;;2.58;;
62030;SDS011;62035;52.094;5.112;2023-02-24T03:05:45;9.95;;;2.13;;
62030;SDS011;62035;52.094;5.112;2023-02-24T03:08:22;7.97;;;1.95;;
62030;SDS011;62035;52.094;5.112;2023-02-24T03:10:55;14.57;;;2.40;;
62030;SDS011;62035;52.094;5.112;2023-02-24T03:13:30;20.45;;;3.05;;
62030;SDS011;62035;52.094;5.112;2023-02-24T03:16:03;16.70;;;2.70;;
62030;SDS011;62035;52.094;5.112;2023-02-24T03:18:33;8.88;;;2.20;;
62030;SDS011;62035;52.094;5.112;2023-02-24T03:21:08;16.20;;;2.83;;
62030;SDS011;62035;52.094;5.112;2023-02-24T03:23:42;5.93;;;1.88;;
62030;SDS011;62035;52.094;5.112;2023-02-24T03:26:17;12.13;;;2.50;;
62030;SDS011;62035;52.094;5.112;2023-02-24T03:28:54;10.75;;;2.63;;
62030;SDS011;62035;52.094;5.112;2023-02-24T03:31:33;11.95;;;2.75;;
62030;SDS011;62035;52.094;5.112;2023-02-24T03:34:11;12.68;;;2.15;;
62030;SDS011;62035;52.094;5.112;2023-02-24T03:36:47;7.57;;;2.33;;
62030;SDS011;62035;52.094;5.112;2023-02-24T03:39:14;17.30;;;4.45;;
62030;SDS011;62035;52.094;5.112;2023-02-24T03:41:43;11.48;;;2.45;;
62030;SDS011;62035;52.094;5.112;2023-02-24T03:44:21;6.45;;;2.20;;
62030;SDS011;62035;52.094;5.112;2023-02-24T03:46:50;9.77;;;2.25;;
62030;SDS011;62035;52.094;5.112;2023-02-24T03:49:20;10.77;;;2.67;;
62030;SDS011;62035;52.094;5.112;2023-02-24T03:51:53;20.85;;;3.33;;
62030;SDS011;62035;52.094;5.112;2023-02-24T03:54:42;13.32;;;2.55;;
62030;SDS011;62035;52.094;5.112;2023-02-24T03:57:35;9.75;;;2.50;;
62030;SDS011;62035;52.094;5.112;2023-02-24T04:00:26;9.48;;;2.20;;
62030;SDS011;62035;52.094;5.112;2023-02-24T04:03:10;10.73;;;2.78;;
62030;SDS011;62035;52.094;5.112;2023-02-24T04:05:52;8.75;;;2.47;;
62030;SDS011;62035;52.094;5.112;2023-02-24T04:08:36;10.43;;;2.20;;
62030;SDS011;62035;52.094;5.112;2023-02-24T04:11:13;6.85;;;2.10;;
62030;SDS011;62035;52.094;5.112;2023-02-24T04:13:51;16.77;;;2.78;;
62030;SDS011;62035;52.094;5.112;2023-02-24T04:16:27;8.98;;;2.13;;
62030;SDS011;62035;52.094;5.112;2023-02-24T04:19:05;13.15;;;3.20;;
62030;SDS011;62035;52.094;5.112;2023-02-24T04:21:40;9.07;;;2.60;;
62030;SDS011;62035;52.094;5.112;2023-02-24T04:24:14;7.50;;;1.98;;
62030;SDS011;62035;52.094;5.112;2023-02-24T04:26:48;10.02;;;2.10;;
62030;SDS011;62035;52.094;5.112;2023-02-24T04:29:20;9.75;;;1.95;;
62030;SDS011;62035;52.094;5.112;2023-02-24T04:34:29;10.65;;;1.67;;
62030;SDS011;62035;52.094;5.112;2023-02-24T04:36:58;10.57;;;1.88;;
62030;SDS011;62035;52.094;5.112;2023-02-24T04:39:28;10.65;;;1.95;;
62030;SDS011;62035;52.094;5.112;2023-02-24T04:41:57;10.88;;;2.25;;
62030;SDS011;62035;52.094;5.112;2023-02-24T04:44:26;8.82;;;1.80;;
62030;SDS011;62035;52.094;5.112;2023-02-24T04:46:54;8.50;;;1.75;;
62030;SDS011;62035;52.094;5.112;2023-02-24T04:49:21;11.07;;;1.73;;
62030;SDS011;62035;52.094;5.112;2023-02-24T04:51:49;9.70;;;1.98;;
62030;SDS011;62035;52.094;5.112;2023-02-24T04:54:17;3.95;;;1.60;;
62030;SDS011;62035;52.094;5.112;2023-02-24T04:56:51;9.32;;;1.67;;
62030;SDS011;62035;52.094;5.112;2023-02-24T04:59:19;11.73;;;2.00;;
62030;SDS011;62035;52.094;5.112;2023-02-24T05:01:49;13.98;;;2.17;;
62030;SDS011;62035;52.094;5.112;2023-02-24T05:04:17;14.07;;;2.67;;
62030;SDS011;62035;52.094;5.112;2023-02-24T05:06:45;9.43;;;1.75;;
62030;SDS011;62035;52.094;5.112;2023-02-24T05:09:14;11.15;;;2.08;;
62030;SDS011;62035;52.094;5.112;2023-02-24T05:11:44;11.50;;;1.70;;
62030;SDS011;62035;52.094;5.112;2023-02-24T05:14:16;11.18;;;2.42;;
62030;SDS011;62035;52.094;5.112;2023-02-24T05:19:15;6.55;;;1.30;;
62030;SDS011;62035;52.094;5.112;2023-02-24T05:22:02;10.98;;;2.20;;
62030;SDS011;62035;52.094;5.112;2023-02-24T05:24:34;10.70;;;1.80;;
62030;SDS011;62035;52.094;5.112;2023-02-24T05:27:02;12.27;;;1.98;;
62030;SDS011;62035;52.094;5.112;2023-02-24T05:29:32;9.98;;;2.40;;
62030;SDS011;62035;52.094;5.112;2023-02-24T05:32:01;7.15;;;1.60;;
62030;SDS011;62035;52.094;5.112;2023-02-24T05:34:31;10.77;;;1.73;;
62030;SDS011;62035;52.094;5.112;2023-02-24T05:37:00;5.68;;;1.70;;
62030;SDS011;62035;52.094;5.112;2023-02-24T05:39:35;5.65;;;1.33;;
62030;SDS011;62035;52.094;5.112;2023-02-24T05:42:03;7.30;;;2.45;;
62030;SDS011;62035;52.094;5.112;2023-02-24T05:44:33;9.35;;;2.72;;
62030;SDS011;62035;52.094;5.112;2023-02-24T05:47:01;12.63;;;2.03;;
62030;SDS011;62035;52.094;5.112;2023-02-24T05:49:31;10.85;;;2.28;;
62030;SDS011;62035;52.094;5.112;2023-02-24T05:52:02;4.30;;;1.90;;
62030;SDS011;62035;52.094;5.112;2023-02-24T05:54:35;5.72;;;1.63;;
62030;SDS011;62035;52.094;5.112;2023-02-24T05:57:05;6.00;;;1.48;;
62030;SDS011;62035;52.094;5.112;2023-02-24T05:59:38;12.25;;;1.73;;
62030;SDS011;62035;52.094;5.112;2023-02-24T06:02:07;9.55;;;2.08;;
62030;SDS011;62035;52.094;5.112;2023-02-24T06:04:37;9.98;;;1.77;;
62030;SDS011;62035;52.094;5.112;2023-02-24T06:07:16;5.28;;;1.50;;
62030;SDS011;62035;52.094;5.112;2023-02-24T06:09:48;11.95;;;2.90;;
62030;SDS011;62035;52.094;5.112;2023-02-24T06:12:19;7.22;;;1.75;;
62030;SDS011;62035;52.094;5.112;2023-02-24T06:14:51;11.85;;;3.03;;
62030;SDS011;62035;52.094;5.112;2023-02-24T06:17:20;4.25;;;1.98;;
62030;SDS011;62035;52.094;5.112;2023-02-24T06:19:49;7.70;;;1.80;;
62030;SDS011;62035;52.094;5.112;2023-02-24T06:22:19;7.13;;;1.83;;
62030;SDS011;62035;52.094;5.112;2023-02-24T06:24:51;11.52;;;1.60;;
62030;SDS011;62035;52.094;5.112;2023-02-24T06:27:20;10.23;;;2.45;;
62030;SDS011;62035;52.094;5.112;2023-02-24T06:29:49;8.50;;;1.85;;
62030;SDS011;62035;52.094;5.112;2023-02-24T06:32:21;6.95;;;1.70;;
62030;SDS011;62035;52.094;5.112;2023-02-24T06:34:51;10.88;;;1.50;;
62030;SDS011;62035;52.094;5.112;2023-02-24T06:37:21;8.25;;;2.05;;
62030;SDS011;62035;52.094;5.112;2023-02-24T06:39:49;9.07;;;2.30;;
62030;SDS011;62035;52.094;5.112;2023-02-24T06:42:17;19.85;;;2.25;;
62030;SDS011;62035;52.094;5.112;2023-02-24T06:44:45;6.40;;;1.90;;
62030;SDS011;62035;52.094;5.112;2023-02-24T06:47:14;6.40;;;2.28;;
62030;SDS011;62035;52.094;5.112;2023-02-24T06:49:42;12.68;;;3.33;;
62030;SDS011;62035;52.094;5.112;2023-02-24T06:52:10;11.15;;;2.33;;
62030;SDS011;62035;52.094;5.112;2023-02-24T06:54:43;8.23;;;2.22;;
62030;SDS011;62035;52.094;5.112;2023-02-24T06:57:12;6.90;;;2.30;;
62030;SDS011;62035;52.094;5.112;2023-02-24T06:59:39;9.98;;;2.20;;
62030;SDS011;62035;52.094;5.112;2023-02-24T07:02:08;6.65;;;2.15;;
62030;SDS011;62035;52.094;5.112;2023-02-24T07:04:38;10.30;;;2.08;;
62030;SDS011;62035;52.094;5.112;2023-02-24T07:07:09;9.23;;;2.03;;
62030;SDS011;62035;52.094;5.112;2023-02-24T07:09:39;11.00;;;2.38;;
62030;SDS011;62035;52.094;5.112;2023-02-24T07:12:08;7.70;;;1.55;;
62030;SDS011;62035;52.094;5.112;2023-02-24T07:14:37;6.10;;;1.65;;
62030;SDS011;62035;52.094;5.112;2023-02-24T07:17:05;6.35;;;2.03;;
62030;SDS011;62035;52.094;5.112;2023-02-24T07:19:33;6.25;;;2.10;;
62030;SDS011;62035;52.094;5.112;2023-02-24T07:22:02;11.00;;;1.98;;
62030;SDS011;62035;52.094;5.112;2023-02-24T07:24:31;4.97;;;2.28;;
62030;SDS011;62035;52.094;5.112;2023-02-24T07:27:02;7.00;;;1.90;;
62030;SDS011;62035;52.094;5.112;2023-02-24T07:29:33;10.82;;;2.13;;
62030;SDS011;62035;52.094;5.112;2023-02-24T07:32:03;12.40;;;2.22;;
62030;SDS011;62035;52.094;5.112;2023-02-24T07:34:34;10.68;;;2.20;;
62030;SDS011;62035;52.094;5.112;2023-02-24T07:37:06;8.07;;;2.30;;
62030;SDS011;62035;52.094;5.112;2023-02-24T07:39:34;11.38;;;2.00;;
62030;SDS011;62035;52.094;5.112;2023-02-24T07:42:04;9.88;;;2.40;;
62030;SDS011;62035;52.094;5.112;2023-02-24T07:44:33;7.38;;;2.05;;
62030;SDS011;62035;52.094;5.112;2023-02-24T07:47:03;5.50;;;1.98;;
62030;SDS011;62035;52.094;5.112;2023-02-24T07:49:32;8.10;;;2.25;;
62030;SDS011;62035;52.094;5.112;2023-02-24T07:52:01;8.32;;;2.22;;
62030;SDS011;62035;52.094;5.112;2023-02-24T07:54:31;14.00;;;2.67;;
62030;SDS011;62035;52.094;5.112;2023-02-24T07:57:00;9.95;;;2.45;;
62030;SDS011;62035;52.094;5.112;2023-02-24T07:59:28;11.45;;;2.22;;
62030;SDS011;62035;52.094;5.112;2023-02-24T08:01:58;15.18;;;2.60;;
62030;SDS011;62035;52.094;5.112;2023-02-24T08:04:29;10.82;;;2.30;;
62030;SDS011;62035;52.094;5.112;2023-02-24T08:06:58;9.68;;;2.00;;
62030;SDS011;62035;52.094;5.112;2023-02-24T08:09:29;13.07;;;2.20;;
62030;SDS011;62035;52.094;5.112;2023-02-24T08:12:28;9.88;;;2.22;;
62030;SDS011;62035;52.094;5.112;2023-02-24T08:14:56;6.53;;;2.00;;
62030;SDS011;62035;52.094;5.112;2023-02-24T08:17:25;9.20;;;2.47;;
62030;SDS011;62035;52.094;5.112;2023-02-24T08:19:54;9.23;;;2.30;;
62030;SDS011;62035;52.094;5.112;2023-02-24T08:22:48;6.07;;;2.20;;
62030;SDS011;62035;52.094;5.112;2023-02-24T08:25:19;7.55;;;2.20;;
62030;SDS011;62035;52.094;5.112;2023-02-24T08:28:00;12.30;;;2.35;;
62030;SDS011;62035;52.094;5.112;2023-02-24T08:30:31;7.68;;;2.08;;
62030;SDS011;62035;52.094;5.112;2023-02-24T08:33:04;11.05;;;2.45;;
62030;SDS011;62035;52.094;5.112;2023-02-24T08:35:35;9.82;;;2.53;;
62030;SDS011;62035;52.094;5.112;2023-02-24T08:38:09;8.75;;;2.75;;
62030;SDS011;62035;52.094;5.112;2023-02-24T08:40:42;10.00;;;2.38;;
62030;SDS011;62035;52.094;5.112;2023-02-24T08:43:18;19.63;;;2.88;;
62030;SDS011;62035;52.094;5.112;2023-02-24T08:46:12;10.45;;;2.70;;
62030;SDS011;62035;52.094;5.112;2023-02-24T08:48:44;11.57;;;2.42;;
62030;SDS011;62035;52.094;5.112;2023-02-24T08:51:16;16.58;;;2.88;;
62030;SDS011;62035;52.094;5.112;2023-02-24T08:53:48;12.30;;;2.30;;
62030;SDS011;62035;52.094;5.112;2023-02-24T08:56:21;14.65;;;3.83;;
62030;SDS011;62035;52.094;5.112;2023-02-24T08:58:52;11.60;;;2.85;;
62030;SDS011;62035;52.094;5.112;2023-02-24T09:01:23;12.15;;;2.53;;
62030;SDS011;62035;52.094;5.112;2023-02-24T09:04:00;16.95;;;3.78;;
62030;SDS011;62035;52.094;5.112;2023-02-24T09:06:34;11.82;;;2.75;;
62030;SDS011;62035;52.094;5.112;2023-02-24T09:09:08;12.35;;;2.90;;
62030;SDS011;62035;52.094;5.112;2023-02-24T09:11:45;16.10;;;2.85;;
62030;SDS011;62035;52.094;5.112;2023-02-24T09:14:16;15.77;;;2.67;;
62030;SDS011;62035;52.094;5.112;2023-02-24T09:16:46;8.40;;;2.53;;
62030;SDS011;62035;52.094;5.112;2023-02-24T09:19:31;12.75;;;2.78;;
62030;SDS011;62035;52.094;5.112;2023-02-24T09:22:23;14.35;;;2.70;;
62030;SDS011;62035;52.094;5.112;2023-02-24T09:25:22;8.07;;;2.60;;
62030;SDS011;62035;52.094;5.112;2023-02-24T09:28:07;10.95;;;2.45;;
62030;SDS011;62035;52.094;5.112;2023-02-24T09:30:42;14.07;;;3.78;;
62030;SDS011;62035;52.094;5.112;2023-02-24T09:33:22;8.63;;;3.15;;
62030;SDS011;62035;52.094;5.112;2023-02-24T09:35:53;14.63;;;3.13;;
62030;SDS011;62035;52.094;5.112;2023-02-24T09:38:35;17.27;;;3.47;;
62030;SDS011;62035;52.094;5.112;2023-02-24T09:41:23;14.02;;;3.25;;
62030;SDS011;62035;52.094;5.112;2023-02-24T09:44:00;16.00;;;3.10;;
62030;SDS011;62035;52.094;5.112;2023-02-24T09:46:34;17.13;;;3.58;;
62030;SDS011;62035;52.094;5.112;2023-02-24T09:49:18;15.63;;;2.95;;
62030;SDS011;62035;52.094;5.112;2023-02-24T09:51:55;14.02;;;2.95;;
62030;SDS011;62035;52.094;5.112;2023-02-24T09:54:33;20.27;;;3.22;;
62030;SDS011;62035;52.094;5.112;2023-02-24T09:57:01;18.40;;;3.15;;
62030;SDS011;62035;52.094;5.112;2023-02-24T09:59:45;14.95;;;2.95;;
62030;SDS011;62035;52.094;5.112;2023-02-24T10:02:48;22.02;;;5.47;;
62030;SDS011;62035;52.094;5.112;2023-02-24T10:06:10;8.93;;;2.70;;
62030;SDS011;62035;52.094;5.112;2023-02-24T10:08:47;19.50;;;3.97;;
62030;SDS011;62035;52.094;5.112;2023-02-24T10:11:20;12.77;;;2.70;;
62030;SDS011;62035;52.094;5.112;2023-02-24T10:13:59;13.88;;;3.53;;
62030;SDS011;62035;52.094;5.112;2023-02-24T10:16:34;14.40;;;2.85;;
62030;SDS011;62035;52.094;5.112;2023-02-24T10:19:19;17.63;;;3.35;;
62030;SDS011;62035;52.094;5.112;2023-02-24T10:21:54;16.13;;;2.70;;
62030;SDS011;62035;52.094;5.112;2023-02-24T10:24:30;13.60;;;3.70;;
62030;SDS011;62035;52.094;5.112;2023-02-24T10:27:13;12.38;;;3.40;;
62030;SDS011;62035;52.094;5.112;2023-02-24T10:29:55;13.43;;;3.35;;
62030;SDS011;62035;52.094;5.112;2023-02-24T10:32:39;12.55;;;2.78;;
62030;SDS011;62035;52.094;5.112;2023-02-24T10:35:17;12.75;;;3.08;;
62030;SDS011;62035;52.094;5.112;2023-02-24T10:37:51;11.98;;;3.60;;
62030;SDS011;62035;52.094;5.112;2023-02-24T10:40:23;14.75;;;3.80;;
62030;SDS011;62035;52.094;5.112;2023-02-24T10:43:09;14.25;;;3.65;;
62030;SDS011;62035;52.094;5.112;2023-02-24T10:45:44;14.35;;;3.80;;
62030;SDS011;62035;52.094;5.112;2023-02-24T10:48:18;14.20;;;3.97;;
62030;SDS011;62035;52.094;5.112;2023-02-24T10:50:51;9.32;;;3.72;;
62030;SDS011;62035;52.094;5.112;2023-02-24T10:53:33;9.85;;;3.70;;
62030;SDS011;62035;52.094;5.112;2023-02-24T10:56:03;12.63;;;4.38;;
62030;SDS011;62035;52.094;5.112;2023-02-24T10:58:57;7.80;;;3.75;;
62030;SDS011;62035;52.094;5.112;2023-02-24T11:01:49;13.75;;;4.13;;
62030;SDS011;62035;52.094;5.112;2023-02-24T11:04:31;12.48;;;3.95;;
62030;SDS011;62035;52.094;5.112;2023-02-24T11:07:19;11.98;;;4.65;;
62030;SDS011;62035;52.094;5.112;2023-02-24T11:10:10;11.00;;;4.78;;
62030;SDS011;62035;52.094;5.112;2023-02-24T11:12:51;11.82;;;5.15;;
62030;SDS011;62035;52.094;5.112;2023-02-24T11:15:40;13.93;;;5.30;;
62030;SDS011;62035;52.094;5.112;2023-02-24T11:18:29;9.75;;;5.07;;
62030;SDS011;62035;52.094;5.112;2023-02-24T11:21:00;13.55;;;5.82;;
62030;SDS011;62035;52.094;5.112;2023-02-24T11:23:32;8.95;;;5.25;;
62030;SDS011;62035;52.094;5.112;2023-02-24T11:26:02;11.82;;;5.32;;
62030;SDS011;62035;52.094;5.112;2023-02-24T11:28:56;9.77;;;5.22;;
62030;SDS011;62035;52.094;5.112;2023-02-24T11:31:43;11.02;;;4.93;;
62030;SDS011;62035;52.094;5.112;2023-02-24T11:34:34;10.95;;;5.70;;
62030;SDS011;62035;52.094;5.112;2023-02-24T11:37:18;10.05;;;5.90;;
62030;SDS011;62035;52.094;5.112;2023-02-24T11:40:04;12.70;;;7.78;;
62030;SDS011;62035;52.094;5.112;2023-02-24T11:42:43;11.77;;;6.60;;
62030;SDS011;62035;52.094;5.112;2023-02-24T11:45:24;11.57;;;6.30;;
62030;SDS011;62035;52.094;5.112;2023-02-24T11:47:59;12.20;;;7.40;;
62030;SDS011;62035;52.094;5.112;2023-02-24T11:50:35;15.52;;;8.13;;
62030;SDS011;62035;52.094;5.112;2023-02-24T11:53:16;13.63;;;7.55;;
62030;SDS011;62035;52.094;5.112;2023-02-24T11:55:55;18.30;;;8.27;;
62030;SDS011;62035;52.094;5.112;2023-02-24T11:58:30;17.40;;;8.35;;
62030;SDS011;62035;52.094;5.112;2023-02-24T12:01:08;16.08;;;8.05;;
62030;SDS011;62035;52.094;5.112;2023-02-24T12:03:45;25.80;;;8.88;;
62030;SDS011;62035;52.094;5.112;2023-02-24T12:06:22;22.00;;;8.10;;
62030;SDS011;62035;52.094;5.112;2023-02-24T12:09:02;24.25;;;8.15;;
62030;SDS011;62035;52.094;5.112;2023-02-24T12:11:42;21.77;;;7.82;;
62030;SDS011;62035;52.094;5.112;2023-02-24T12:14:20;31.00;;;8.18;;
62030;SDS011;62035;52.094;5.112;2023-02-24T12:16:59;17.60;;;6.10;;
62030;SDS011;62035;52.094;5.112;2023-02-24T12:19:47;20.90;;;5.20;;
62030;SDS011;62035;52.094;5.112;2023-02-24T12:22:25;24.27;;;5.78;;
62030;SDS011;62035;52.094;5.112;2023-02-24T12:25:11;22.60;;;5.28;;
62030;SDS011;62035;52.094;5.112;2023-02-24T12:27:45;30.30;;;5.07;;
62030;SDS011;62035;52.094;5.112;2023-02-24T12:30:37;18.48;;;4.15;;
62030;SDS011;62035;52.094;5.112;2023-02-24T12:33:25;26.13;;;4.07;;
62030;SDS011;62035;52.094;5.112;2023-02-24T12:36:17;26.40;;;3.92;;
62030;SDS011;62035;52.094;5.112;2023-02-24T12:39:02;30.42;;;4.00;;
62030;SDS011;62035;52.094;5.112;2023-02-24T12:44:43;21.83;;;4.25;;
62030;SDS011;62035;52.094;5.112;2023-02-24T12:47:41;17.90;;;3.58;;
62030;SDS011;62035;52.094;5.112;2023-02-24T12:50:26;25.30;;;4.13;;
62030;SDS011;62035;52.094;5.112;2023-02-24T12:53:13;18.45;;;3.53;;
62030;SDS011;62035;52.094;5.112;2023-02-24T12:55:50;18.38;;;3.28;;
62030;SDS011;62035;52.094;5.112;2023-02-24T12:58:33;25.67;;;4.40;;
62030;SDS011;62035;52.094;5.112;2023-02-24T13:01:08;22.10;;;3.65;;
62030;SDS011;62035;52.094;5.112;2023-02-24T13:03:58;27.63;;;4.00;;
62030;SDS011;62035;52.094;5.112;2023-02-24T13:06:47;25.20;;;3.70;;
62030;SDS011;62035;52.094;5.112;2023-02-24T13:09:31;22.17;;;3.10;;
62030;SDS011;62035;52.094;5.112;2023-02-24T13:12:10;22.85;;;4.38;;
62030;SDS011;62035;52.094;5.112;2023-02-24T13:14:46;21.17;;;3.22;;
62030;SDS011;62035;52.094;5.112;2023-02-24T13:17:17;25.77;;;3.90;;
62030;SDS011;62035;52.094;5.112;2023-02-24T13:22:25;18.02;;;3.28;;
62030;SDS011;62035;52.094;5.112;2023-02-24T13:24:57;26.88;;;4.10;;
62030;SDS011;62035;52.094;5.112;2023-02-24T13:27:39;26.00;;;3.35;;
62030;SDS011;62035;52.094;5.112;2023-02-24T13:33:00;23.35;;;3.05;;
62030;SDS011;62035;52.094;5.112;2023-02-24T13:35:33;25.65;;;3.28;;
62030;SDS011;62035;52.094;5.112;2023-02-24T13:38:06;29.63;;;4.18;;
62030;SDS011;62035;52.094;5.112;2023-02-24T13:40:48;21.63;;;3.00;;
62030;SDS011;62035;52.094;5.112;2023-02-24T13:43:21;17.88;;;2.88;;
62030;SDS011;62035;52.094;5.112;2023-02-24T13:45:55;21.27;;;2.85;;
62030;SDS011;62035;52.094;5.112;2023-02-24T13:48:35;20.75;;;3.05;;
62030;SDS011;62035;52.094;5.112;2023-02-24T13:51:31;19.48;;;2.97;;
62030;SDS011;62035;52.094;5.112;2023-02-24T13:54:31;22.90;;;2.67;;
62030;SDS011;62035;52.094;5.112;2023-02-24T13:57:43;17.50;;;3.15;;
62030;SDS011;62035;52.094;5.112;2023-02-24T14:00:28;16.45;;;2.35;;
62030;SDS011;62035;52.094;5.112;2023-02-24T14:03:18;16.73;;;2.97;;
62030;SDS011;62035;52.094;5.112;2023-02-24T14:05:50;14.98;;;2.75;;
62030;SDS011;62035;52.094;5.112;2023-02-24T14:08:20;21.17;;;3.38;;
62030;SDS011;62035;52.094;5.112;2023-02-24T14:10:53;14.00;;;2.05;;
62030;SDS011;62035;52.094;5.112;2023-02-24T14:13:26;13.23;;;2.03;;
62030;SDS011;62035;52.094;5.112;2023-02-24T14:15:59;8.07;;;1.85;;
62030;SDS011;62035;52.094;5.112;2023-02-24T14:18:33;14.38;;;2.17;;
62030;SDS011;62035;52.094;5.112;2023-02-24T14:21:02;9.75;;;1.90;;
62030;SDS011;62035;52.094;5.112;2023-02-24T14:23:31;14.32;;;2.38;;
62030;SDS011;62035;52.094;5.112;2023-02-24T14:26:03;14.02;;;2.03;;
62030;SDS011;62035;52.094;5.112;2023-02-24T14:28:35;14.40;;;2.45;;
62030;SDS011;62035;52.094;5.112;2023-02-24T14:31:06;15.82;;;2.88;;
62030;SDS011;62035;52.094;5.112;2023-02-24T14:33:39;16.13;;;2.40;;
62030;SDS011;62035;52.094;5.112;2023-02-24T14:36:12;15.07;;;2.60;;
62030;SDS011;62035;52.094;5.112;2023-02-24T14:38:44;16.58;;;2.38;;
62030;SDS011;62035;52.094;5.112;2023-02-24T14:41:17;21.38;;;2.97;;
62030;SDS011;62035;52.094;5.112;2023-02-24T14:43:48;18.10;;;3.42;;
62030;SDS011;62035;52.094;5.112;2023-02-24T14:46:16;14.68;;;2.70;;
62030;SDS011;62035;52.094;5.112;2023-02-24T14:48:50;25.27;;;5.15;;
62030;SDS011;62035;52.094;5.112;2023-02-24T14:51:21;15.77;;;2.40;;
62030;SDS011;62035;52.094;5.112;2023-02-24T14:53:54;20.80;;;3.38;;
62030;SDS011;62035;52.094;5.112;2023-02-24T14:56:27;13.23;;;2.80;;
62030;SDS011;62035;52.094;5.112;2023-02-24T14:59:00;13.77;;;2.53;;
62030;SDS011;62035;52.094;5.112;2023-02-24T15:01:35;20.25;;;3.00;;
62030;SDS011;62035;52.094;5.112;2023-02-24T15:04:11;13.05;;;2.55;;
62030;SDS011;62035;52.094;5.112;2023-02-24T15:06:50;15.18;;;2.38;;
62030;SDS011;62035;52.094;5.112;2023-02-24T15:09:19;14.23;;;2.45;;
62030;SDS011;62035;52.094;5.112;2023-02-24T15:11:53;12.35;;;2.22;;
62030;SDS011;62035;52.094;5.112;2023-02-24T15:14:22;9.80;;;2.10;;
62030;SDS011;62035;52.094;5.112;2023-02-24T15:16:53;10.95;;;2.40;;
62030;SDS011;62035;52.094;5.112;2023-02-24T15:19:30;11.07;;;1.77;;
62030;SDS011;62035;52.094;5.112;2023-02-24T15:22:02;8.52;;;2.10;;
62030;SDS011;62035;52.094;5.112;2023-02-24T15:24:31;12.68;;;1.83;;
62030;SDS011;62035;52.094;5.112;2023-02-24T15:27:01;7.32;;;1.50;;
62030;SDS011;62035;52.094;5.112;2023-02-24T15:29:55;8.10;;;1.63;;
62030;SDS011;62035;52.094;5.112;2023-02-24T15:32:27;6.55;;;1.60;;
62030;SDS011;62035;52.094;5.112;2023-02-24T15:35:00;5.45;;;1.10;;
62030;SDS011;62035;52.094;5.112;2023-02-24T15:37:31;8.05;;;1.27;;
62030;SDS011;62035;52.094;5.112;2023-02-24T15:40:14;7.10;;;1.42;;
62030;SDS011;62035;52.094;5.112;2023-02-24T15:42:50;9.57;;;1.40;;
62030;SDS011;62035;52.094;5.112;2023-02-24T15:45:22;4.43;;;1.25;;
62030;SDS011;62035;52.094;5.112;2023-02-24T15:47:55;7.85;;;2.08;;